Latest Weather Observations for Temora

IDN60801

Issued at 9:05 am EDT Sunday 1 February 2015 (issued every 30 minutes, with the page automatically refreshed every 10 minutes)

About weather observations | Map of weather stations | Latest weather observations for NSW | Other Formats
Station Details ID: 073151 Name: TEMORA AIRPORT Lat: -34.43 Lon: 147.51 Height: 280.5 m
Data from the previous 72 hours. | See also: Recent months at Temora
Date/Time
EDT
Temp
°C
App
Temp
°C
Dew
Point
Rel
Hum
%
Delta-T
°C
Wind Press
QNH
hPa
Press
MSL
hPa
Rain
since 9 am
mm
Dir
 
Spd
km/h
Gust
km/h
Spd
kts
Gust
kts
01/09:00am 18.2 17.4 11.0 63 4.0 SW 6 9 3 5 1010.3 1008.7 0.0
01/08:30am 16.4 14.9 11.8 74 2.5 SW 11 15 6 8 1010.2 1008.6 0.0
01/08:00am 13.7 12.9 10.9 83 1.5 WSW 6 11 3 6 1010.0 1008.4 0.0
01/07:30am 11.9 11.4 9.3 84 1.3 WSW 2 7 1 4 1009.5 1007.9 0.0
01/07:00am 11.4 10.8 9.0 85 1.2 S 2 7 1 4 1009.4 1007.8 0.0
01/06:30am 10.6 9.9 8.4 86 1.1 WSW 2 7 1 4 1009.3 1007.7 0.0
01/06:00am 11.0 9.9 8.6 85 1.2 SSW 4 7 2 4 1008.9 1007.3 0.0
01/05:30am 11.2 9.7 8.6 84 1.3 SW 6 9 3 5 1008.7 1007.1 0.0
01/05:00am 11.0 9.4 8.0 82 1.5 SSW 6 9 3 5 1008.7 1007.1 0.0
01/04:30am 13.8 12.3 8.6 71 2.7 SE 6 9 3 5 1008.7 1007.1 0.0
01/04:00am 14.1 13.8 8.7 70 2.8 CALM 0 0 0 0 1008.7 1007.1 0.0
01/03:30am 14.9 14.0 9.1 68 3.0 NE 4 7 2 4 1008.6 1007.0 0.0
01/03:00am 15.7 13.8 9.1 65 3.4 S 9 13 5 7 1008.7 1007.1 0.0
01/02:30am 16.1 13.8 9.1 63 3.7 SSW 11 13 6 7 1008.8 1007.2 0.0
01/02:00am 16.5 13.7 8.5 59 4.2 SSW 13 17 7 9 1008.9 1007.3 0.0
01/01:30am 17.3 14.0 7.9 54 4.8 SSW 15 19 8 10 1009.0 1007.4 0.0
01/01:00am 17.7 14.2 7.2 50 5.4 SSW 15 20 8 11 1009.1 1007.5 0.0
01/12:30am 17.5 14.4 7.3 51 5.2 S 13 17 7 9 1009.3 1007.7 0.0
01/12:00am 17.4 15.0 6.9 50 5.3 SSW 9 13 5 7 1009.4 1007.8 0.0
 
Date/Time
EDT
Temp
°C
App
Temp
°C
Dew
Point
Rel
Hum
%
Delta-T
°C
Wind Press
QNH
hPa
Press
MSL
hPa
Rain
since 9 am
mm
Dir
 
Spd
km/h
Gust
km/h
Spd
kts
Gust
kts
31/11:30pm 16.6 14.5 6.7 52 4.9 SSW 7 9 4 5 1009.4 1007.8 0.0
31/11:00pm 16.9 15.1 7.8 55 4.7 SSW 7 9 4 5 1009.4 1007.8 0.0
31/10:30pm 16.3 15.3 7.3 55 4.5 SW 2 7 1 4 1009.3 1007.7 0.0
31/10:00pm 18.2 17.7 7.9 51 5.3 CALM 0 0 0 0 1009.2 1007.6 0.0
31/09:30pm 19.8 19.0 6.5 42 6.8 CALM 0 0 0 0 1008.9 1007.3 0.0
31/09:00pm 21.3 19.2 6.0 37 7.8 SW 6 9 3 5 1008.9 1007.3 0.0
31/08:30pm 22.4 20.1 5.8 34 8.5 SW 7 11 4 6 1008.5 1006.9 0.0
31/08:00pm 23.8 20.4 6.1 32 9.2 SW 13 20 7 11 1008.2 1006.6 0.0
31/07:30pm 25.4 21.4 6.6 30 9.9 SW 17 24 9 13 1007.9 1006.2 0.0
31/07:00pm 25.9 21.8 6.0 28 10.4 SW 17 24 9 13 1007.6 1005.9 0.0
31/06:30pm 26.7 22.8 7.2 29 10.5 WSW 17 26 9 14 1007.2 1005.6 0.0
31/05:30pm 26.6 21.3 6.6 28 10.6 WSW 24 35 13 19 1007.4 1005.7 0.0
31/05:00pm 27.1 22.6 7.0 28 10.8 WSW 20 32 11 17 1007.5 1005.8 0.0
31/04:30pm 26.5 21.6 7.0 29 10.4 WSW 22 37 12 20 1007.9 1006.2 0.0
31/04:00pm 26.7 22.4 7.7 30 10.3 WSW 20 32 11 17 1008.1 1006.4 0.0
31/03:30pm 26.3 22.2 7.8 31 10.0 WSW 19 28 10 15 1007.9 1006.2 0.0
31/03:00pm 26.0 22.3 8.0 32 9.8 WSW 17 30 9 16 1008.1 1006.4 0.0
31/02:30pm 25.5 21.2 7.1 31 9.8 SW 19 30 10 16 1008.4 1006.8 0.0
31/02:00pm 24.8 20.3 7.0 32 9.4 W 20 30 11 16 1008.6 1007.0 0.0
31/01:30pm 24.0 20.3 6.3 32 9.2 S 15 26 8 14 1008.9 1007.3 0.0
31/01:00pm 24.1 20.1 6.8 33 9.1 SSW 17 24 9 13 1009.0 1007.4 0.0
31/12:30pm 23.1 19.0 6.4 34 8.7 S 17 22 9 12 1009.1 1007.5 0.0
31/12:00pm 22.5 18.8 6.3 35 8.4 SW 15 24 8 13 1009.4 1007.8 0.0
31/11:30am 22.0 18.5 7.0 38 7.8 SSW 15 20 8 11 1009.7 1008.1 0.0
31/11:00am 22.0 19.0 9.2 44 6.9 WSW 15 24 8 13 1009.9 1008.3 0.0
31/10:30am 20.9 17.0 8.5 45 6.6 WSW 19 33 10 18 1010.0 1008.4 0.0
31/10:00am 20.2 16.7 7.2 43 6.7 SSW 15 22 8 12 1010.1 1008.5 0.0
31/09:30am 19.1 16.0 8.7 51 5.5 S 15 20 8 11 1010.2 1008.6 0.0
31/09:00am 17.9 15.6 9.0 56 4.7 SSW 11 17 6 9 1010.3 1008.7 0.0
31/08:30am 15.7 13.4 8.9 64 3.5 SW 11 13 6 7 1010.0 1008.4 0.0
31/08:00am 14.2 12.7 8.6 69 2.9 SW 6 9 3 5 1009.8 1008.2 0.0
31/07:30am 11.7 11.4 8.7 82 1.5 CALM 0 0 0 0 1009.4 1007.8 0.0
31/07:00am 9.8 9.2 7.6 86 1.1 CALM 0 0 0 0 1009.4 1007.8 0.0
31/06:30am 9.6 9.0 7.4 86 1.1 CALM 0 0 0 0 1009.0 1007.4 0.0
31/06:00am 9.6 7.2 6.9 83 1.3 SSW 9 11 5 6 1008.6 1007.0 0.0
31/05:30am 9.3 6.8 6.7 84 1.2 S 9 11 5 6 1008.5 1006.9 0.0
31/05:00am 10.2 8.5 7.4 83 1.4 SW 6 9 3 5 1008.6 1007.0 0.0
31/04:30am 11.1 8.8 7.4 78 1.8 S 9 11 5 6 1008.5 1006.9 0.0
31/04:00am 10.5 8.1 6.8 78 1.8 SSW 9 11 5 6 1008.4 1006.8 0.0
31/03:30am 11.8 9.5 7.3 74 2.2 SSW 9 11 5 6 1008.6 1007.0 0.0
31/03:00am 11.9 9.6 7.6 75 2.1 SSW 9 11 5 6 1008.7 1007.1 0.0
31/02:30am 10.9 8.6 7.6 80 1.6 SW 9 11 5 6 1008.8 1007.2 0.0
31/02:00am 12.0 9.8 7.9 76 2.0 SSW 9 9 5 5 1008.8 1007.2 0.0
31/01:30am 12.4 10.0 7.1 70 2.6 SSW 9 9 5 5 1009.0 1007.4 0.0
31/01:00am 15.6 12.9 7.4 58 4.1 S 11 17 6 9 1009.2 1007.6 0.0
31/12:30am 15.7 13.0 7.2 57 4.3 S 11 15 6 8 1009.4 1007.8 0.0
31/12:00am 16.5 13.5 7.7 56 4.5 S 13 17 7 9 1009.3 1007.7 0.0
 
Date/Time
EDT
Temp
°C
App
Temp
°C
Dew
Point
Rel
Hum
%
Delta-T
°C
Wind Press
QNH
hPa
Press
MSL
hPa
Rain
since 9 am
mm
Dir
 
Spd
km/h
Gust
km/h
Spd
kts
Gust
kts
30/11:30pm 16.0 13.0 7.5 57 4.3 S 13 17 7 9 1009.3 1007.7 0.0
30/11:00pm 16.6 13.5 7.3 54 4.7 S 13 17 7 9 1009.4 1007.8 0.0
30/10:30pm 17.1 14.1 7.5 53 4.9 S 13 17 7 9 1009.5 1007.9 0.0
30/10:00pm 16.9 14.5 7.0 52 5.0 SSW 9 15 5 8 1009.4 1007.8 0.0
30/09:30pm 17.4 14.9 6.6 49 5.4 SSW 9 13 5 7 1009.3 1007.7 0.0
30/09:00pm 18.7 15.7 5.9 43 6.4 SSW 11 15 6 8 1008.9 1007.3 0.0
30/08:30pm 19.4 16.6 5.1 39 7.1 SSW 9 15 5 8 1008.6 1007.0 0.0
30/08:00pm 21.4 17.3 4.5 33 8.4 SSW 15 20 8 11 1008.6 1007.0 0.0
30/07:30pm 22.7 17.7 3.8 29 9.3 SSW 19 28 10 15 1008.3 1006.7 0.0
30/07:00pm 23.5 18.4 4.0 28 9.7 SW 20 28 11 15 1008.1 1006.4 0.0
30/06:30pm 23.7 18.0 3.1 26 10.1 SSW 22 33 12 18 1008.0 1006.3 0.0
30/06:00pm 24.4 19.4 3.7 26 10.3 SW 19 26 10 14 1007.9 1006.2 0.0
30/05:30pm 24.1 18.5 3.4 26 10.2 SSW 22 33 12 18 1008.1 1006.4 0.0
30/05:00pm 24.5 19.2 3.2 25 10.5 SSW 20 33 11 18 1008.3 1006.7 0.0
30/04:30pm 24.2 17.7 2.9 25 10.4 SW 26 35 14 19 1008.6 1007.0 0.0
30/04:00pm 24.3 18.0 3.6 26 10.3 SW 26 39 14 21 1008.8 1007.2 0.0
30/03:30pm 24.3 18.4 4.1 27 10.1 SW 24 33 13 18 1009.1 1007.5 0.0
30/03:00pm 24.0 18.3 4.9 29 9.7 SSW 24 39 13 21 1009.6 1008.0 0.0
30/02:30pm 23.7 17.7 3.6 27 9.9 SSW 24 39 13 21 1009.9 1008.3 0.0
30/02:00pm 23.7 18.6 4.1 28 9.8 SSW 20 32 11 17 1010.2 1008.6 0.0
30/01:30pm 23.2 18.5 6.0 33 8.9 WSW 20 35 11 19 1010.4 1008.8 0.0
30/01:00pm 22.5 18.0 6.3 35 8.4 SSW 19 32 10 17 1010.7 1009.1 0.0
30/12:30pm 22.4 17.9 4.0 30 9.1 SSW 17 28 9 15 1011.1 1009.4 0.0
30/12:00pm 21.3 16.8 4.4 33 8.3 S 17 32 9 17 1011.4 1009.8 0.0
30/11:30am 20.8 16.9 5.2 36 7.8 SSW 15 22 8 12 1011.7 1010.1 0.0
30/11:00am 19.7 16.2 5.4 39 7.1 SSW 13 20 7 11 1012.1 1010.5 0.0
30/10:30am 19.0 15.6 6.1 43 6.5 SW 13 24 7 13 1012.4 1010.8 0.0
30/10:00am 18.7 15.3 5.9 43 6.4 S 13 24 7 13 1012.5 1010.9 0.0
30/09:30am 17.4 13.7 6.3 48 5.5 SSE 15 20 8 11 1012.7 1011.1 0.0
30/09:00am 16.1 12.8 6.3 52 4.8 SSW 13 19 7 10 1012.9 1011.3 0.0
30/08:30am 15.0 13.0 7.1 59 3.9 SSW 7 9 4 5 1012.8 1011.2 0.0
30/08:00am 13.2 10.8 7.2 67 3.0 SSW 9 11 5 6 1012.7 1011.1 0.0
30/07:30am 10.9 8.5 7.2 78 1.8 SW 9 11 5 6 1012.3 1010.7 0.0
30/07:00am 8.8 6.7 6.6 86 1.0 SW 7 9 4 5 1012.0 1010.4 0.0
30/06:30am 7.9 5.1 5.2 83 1.2 SSW 9 11 5 6 1012.0 1010.4 0.0
30/06:00am 8.6 5.9 5.5 81 1.4 S 9 13 5 7 1011.6 1010.0 0.0
30/05:30am 10.6 8.1 6.4 75 2.0 S 9 13 5 7 1011.6 1010.0 0.0
30/05:00am 10.2 7.0 6.9 80 1.6 S 13 15 7 8 1011.7 1010.1 0.0
30/04:30am 10.6 8.1 6.4 75 2.0 S 9 9 5 5 1011.3 1009.6 0.0
30/04:00am 11.8 8.9 6.7 71 2.5 SSE 11 13 6 7 1011.5 1009.9 0.0
30/03:30am 11.0 8.2 7.1 77 1.9 S 11 13 6 7 1011.8 1010.2 0.0
30/03:00am 12.3 9.3 6.1 66 3.0 SSE 11 13 6 7 1011.8 1010.2 0.0
30/02:30am 13.8 11.1 7.3 65 3.2 SSE 11 13 6 7 1011.9 1010.3 0.0
30/02:00am 14.2 12.2 7.3 63 3.4 SE 7 9 4 5 1011.9 1010.3 0.0
30/01:30am 14.6 12.6 7.2 61 3.7 SE 7 11 4 6 1012.1 1010.5 0.0
30/01:00am 15.4 13.4 6.9 57 4.2 SSE 7 9 4 5 1012.3 1010.7 0.0
30/12:30am 16.4 14.0 6.8 53 4.8 ESE 9 13 5 7 1012.3 1010.7 0.0
30/12:00am 17.2 13.8 6.1 48 5.5 SE 13 19 7 10 1012.5 1010.9 0.0
 
Date/Time
EDT
Temp
°C
App
Temp
°C
Dew
Point
Rel
Hum
%
Delta-T
°C
Wind Press
QNH
hPa
Press
MSL
hPa
Rain
since 9 am
mm
Dir
 
Spd
km/h
Gust
km/h
Spd
kts
Gust
kts
29/11:30pm 18.5 14.3 5.7 43 6.4 SSE 17 24 9 13 1012.6 1011.0 0.0
29/11:00pm 18.7 14.0 6.2 44 6.3 S 20 28 11 15 1012.5 1010.9 0.0
29/10:30pm 19.1 14.5 6.6 44 6.3 S 20 28 11 15 1012.5 1010.9 0.0
29/10:00pm 18.0 14.4 4.9 42 6.4 SSW 13 20 7 11 1012.4 1010.8 0.0
29/09:30pm 17.4 14.2 5.0 44 6.0 SW 11 15 6 8 1012.1 1010.5 0.0
29/09:00pm 18.1 15.2 4.7 41 6.5 SSW 9 13 5 7 1011.8 1010.2 0.0
29/08:30pm 20.2 16.4 3.9 34 7.9 SSW 13 15 7 8 1011.6 1010.0 0.0
29/08:00pm 22.4 17.8 3.5 29 9.2 S 17 24 9 13 1011.4 1009.8 0.0
29/07:30pm 23.5 19.2 3.4 27 9.9 SW 15 20 8 11 1011.3 1009.6 0.0
29/07:00pm 24.0 19.2 2.8 25 10.4 SSW 17 24 9 13 1011.2 1009.5 0.0
29/06:30pm 24.0 18.8 2.2 24 10.5 SW 19 26 10 14 1010.9 1009.3 0.0
29/06:00pm 24.9 19.6 3.0 24 10.8 SSW 20 28 11 15 1011.1 1009.4 0.0
29/05:30pm 25.3 20.3 4.4 26 10.6 S 20 33 11 18 1011.2 1009.5 0.0
29/05:00pm 25.1 19.5 3.7 25 10.7 S 22 33 12 18 1011.5 1009.9 0.0
29/04:30pm 25.4 20.4 3.4 24 11.0 S 19 39 10 21 1011.8 1010.2 0.0
29/04:00pm 24.9 19.8 3.0 24 10.8 SW 19 33 10 18 1012.0 1010.4 0.0
29/03:30pm 25.1 20.2 4.3 26 10.5 SSW 19 30 10 16 1012.5 1010.9 0.0
29/03:00pm 24.6 19.0 3.3 25 10.5 SW 22 30 12 16 1012.8 1011.2 0.0
29/02:30pm 24.6 19.6 3.8 26 10.4 S 19 35 10 19 1013.2 1011.6 0.0
29/02:00pm 24.2 19.1 4.0 27 10.1 SSW 20 30 11 16 1013.5 1011.9 0.0
29/01:30pm 23.5 17.8 4.9 30 9.4 SSW 24 37 13 20 1013.9 1012.3 0.0
29/01:00pm 23.6 18.5 6.0 32 9.1 S 22 33 12 18 1014.2 1012.6 0.0
29/12:30pm 22.5 18.5 6.7 36 8.2 S 17 28 9 15 1014.7 1013.2 0.0
29/12:00pm 21.7 18.7 7.9 41 7.3 S 13 26 7 14 1015.4 1013.8 0.0
29/11:30am 21.4 19.6 9.3 46 6.5 SSW 9 17 5 9 1015.7 1014.1 0.0
29/11:00am 19.5 17.9 8.2 48 5.9 NW 6 15 3 8 1016.0 1014.4 0.0
29/10:30am 18.7 16.2 8.4 51 5.4 SSE 11 17 6 9 1016.2 1014.6 0.0
29/10:00am 18.2 16.2 8.5 53 5.1 SE 9 15 5 8 1016.1 1014.5 0.0
29/09:30am 17.8 15.9 9.2 57 4.6 ESE 9 17 5 9 1016.2 1014.6 0.0

Other Formats:

Comma delimited format used in spreadsheet applications
http://www.bom.gov.au/fwo/IDN60801/IDN60801.95722.axf

JavaScript Object Notation format (JSON) in row-major order
http://www.bom.gov.au/fwo/IDN60801/IDN60801.95722.json